sensor_id;sensor_type;location;lat;lon;timestamp;temperature;humidity
49184;DHT22;35021;49.214;12.270;2023-07-29T00:01:34;23.30;64.10
49184;DHT22;35021;49.214;12.270;2023-07-29T00:04:02;23.30;63.40
49184;DHT22;35021;49.214;12.270;2023-07-29T00:06:29;23.30;63.30
49184;DHT22;35021;49.214;12.270;2023-07-29T00:08:56;23.30;63.30
49184;DHT22;35021;49.214;12.270;2023-07-29T00:11:23;23.30;63.40
49184;DHT22;35021;49.214;12.270;2023-07-29T00:13:50;23.30;63.30
49184;DHT22;35021;49.214;12.270;2023-07-29T00:16:17;23.30;63.30
49184;DHT22;35021;49.214;12.270;2023-07-29T00:18:44;23.30;63.40
49184;DHT22;35021;49.214;12.270;2023-07-29T00:21:11;23.30;63.40
49184;DHT22;35021;49.214;12.270;2023-07-29T00:23:38;23.30;63.40
49184;DHT22;35021;49.214;12.270;2023-07-29T00:26:05;23.40;63.40
49184;DHT22;35021;49.214;12.270;2023-07-29T00:28:32;23.40;63.30
49184;DHT22;35021;49.214;12.270;2023-07-29T00:30:59;23.40;63.40
49184;DHT22;35021;49.214;12.270;2023-07-29T00:33:26;23.40;63.40
49184;DHT22;35021;49.214;12.270;2023-07-29T00:35:55;23.40;63.30
49184;DHT22;35021;49.214;12.270;2023-07-29T00:38:22;23.40;63.20
49184;DHT22;35021;49.214;12.270;2023-07-29T00:40:49;23.40;63.30
49184;DHT22;35021;49.214;12.270;2023-07-29T00:43:16;23.40;63.20
49184;DHT22;35021;49.214;12.270;2023-07-29T00:45:44;23.40;63.20
49184;DHT22;35021;49.214;12.270;2023-07-29T00:48:11;23.40;63.20
49184;DHT22;35021;49.214;12.270;2023-07-29T00:50:38;23.40;63.20
49184;DHT22;35021;49.214;12.270;2023-07-29T00:53:05;23.40;63.10
49184;DHT22;35021;49.214;12.270;2023-07-29T00:55:32;23.40;63.10
49184;DHT22;35021;49.214;12.270;2023-07-29T00:57:59;23.40;63.10
49184;DHT22;35021;49.214;12.270;2023-07-29T01:00:26;23.40;63.10
49184;DHT22;35021;49.214;12.270;2023-07-29T01:02:53;23.40;63.00
49184;DHT22;35021;49.214;12.270;2023-07-29T01:05:22;23.40;63.00
49184;DHT22;35021;49.214;12.270;2023-07-29T01:08:18;23.40;63.10
49184;DHT22;35021;49.214;12.270;2023-07-29T01:11:01;23.40;63.00
49184;DHT22;35021;49.214;12.270;2023-07-29T01:13:48;23.40;63.00
49184;DHT22;35021;49.214;12.270;2023-07-29T01:16:52;23.40;63.00
49184;DHT22;35021;49.214;12.270;2023-07-29T01:22:16;23.40;63.00
49184;DHT22;35021;49.214;12.270;2023-07-29T01:24:44;23.40;63.10
49184;DHT22;35021;49.214;12.270;2023-07-29T01:27:11;23.40;63.20
49184;DHT22;35021;49.214;12.270;2023-07-29T01:29:38;23.30;63.30
49184;DHT22;35021;49.214;12.270;2023-07-29T01:32:14;23.30;63.30
49184;DHT22;35021;49.214;12.270;2023-07-29T01:34:56;23.30;63.30
49184;DHT22;35021;49.214;12.270;2023-07-29T01:37:27;23.30;63.40
49184;DHT22;35021;49.214;12.270;2023-07-29T01:39:56;23.20;63.40
49184;DHT22;35021;49.214;12.270;2023-07-29T01:42:25;23.30;63.40
49184;DHT22;35021;49.214;12.270;2023-07-29T01:44:55;23.20;63.40
49184;DHT22;35021;49.214;12.270;2023-07-29T01:47:22;23.20;63.40
49184;DHT22;35021;49.214;12.270;2023-07-29T01:49:49;23.20;63.40
49184;DHT22;35021;49.214;12.270;2023-07-29T01:52:16;23.20;63.40
49184;DHT22;35021;49.214;12.270;2023-07-29T01:54:43;23.20;63.30
49184;DHT22;35021;49.214;12.270;2023-07-29T01:57:10;23.30;63.40
49184;DHT22;35021;49.214;12.270;2023-07-29T01:59:37;23.30;63.40
49184;DHT22;35021;49.214;12.270;2023-07-29T02:02:04;23.20;63.30
49184;DHT22;35021;49.214;12.270;2023-07-29T02:04:31;23.20;63.30
49184;DHT22;35021;49.214;12.270;2023-07-29T02:06:58;23.30;63.30
49184;DHT22;35021;49.214;12.270;2023-07-29T02:09:25;23.30;63.30
49184;DHT22;35021;49.214;12.270;2023-07-29T02:11:52;23.30;63.30
49184;DHT22;35021;49.214;12.270;2023-07-29T02:14:19;23.30;63.30
49184;DHT22;35021;49.214;12.270;2023-07-29T02:16:46;23.30;63.30
49184;DHT22;35021;49.214;12.270;2023-07-29T02:19:12;23.30;63.20
49184;DHT22;35021;49.214;12.270;2023-07-29T02:21:39;23.30;63.20
49184;DHT22;35021;49.214;12.270;2023-07-29T02:24:06;23.30;63.20
49184;DHT22;35021;49.214;12.270;2023-07-29T02:26:33;23.30;63.10
49184;DHT22;35021;49.214;12.270;2023-07-29T02:29:00;23.30;63.10
49184;DHT22;35021;49.214;12.270;2023-07-29T02:31:27;23.30;63.10
49184;DHT22;35021;49.214;12.270;2023-07-29T02:33:54;23.30;63.10
49184;DHT22;35021;49.214;12.270;2023-07-29T02:36:22;23.30;63.10
49184;DHT22;35021;49.214;12.270;2023-07-29T02:38:49;23.30;63.00
49184;DHT22;35021;49.214;12.270;2023-07-29T02:41:16;23.30;63.00
49184;DHT22;35021;49.214;12.270;2023-07-29T02:43:44;23.30;62.90
49184;DHT22;35021;49.214;12.270;2023-07-29T02:46:15;23.30;62.90
49184;DHT22;35021;49.214;12.270;2023-07-29T02:48:43;23.30;62.90
49184;DHT22;35021;49.214;12.270;2023-07-29T02:51:10;23.30;62.90
49184;DHT22;35021;49.214;12.270;2023-07-29T02:53:37;23.30;62.80
49184;DHT22;35021;49.214;12.270;2023-07-29T02:56:04;23.30;62.80
49184;DHT22;35021;49.214;12.270;2023-07-29T02:58:32;23.30;62.70
49184;DHT22;35021;49.214;12.270;2023-07-29T03:01:03;23.30;62.70
49184;DHT22;35021;49.214;12.270;2023-07-29T03:03:31;23.30;62.70
49184;DHT22;35021;49.214;12.270;2023-07-29T03:06:00;23.30;62.60
49184;DHT22;35021;49.214;12.270;2023-07-29T03:08:27;23.30;62.60
49184;DHT22;35021;49.214;12.270;2023-07-29T03:10:55;23.30;62.60
49184;DHT22;35021;49.214;12.270;2023-07-29T03:13:22;23.30;62.50
49184;DHT22;35021;49.214;12.270;2023-07-29T03:15:49;23.30;62.50
49184;DHT22;35021;49.214;12.270;2023-07-29T03:18:16;23.30;62.40
49184;DHT22;35021;49.214;12.270;2023-07-29T03:20:43;23.30;62.40
49184;DHT22;35021;49.214;12.270;2023-07-29T03:23:10;23.30;62.40
49184;DHT22;35021;49.214;12.270;2023-07-29T03:25:36;23.30;62.40
49184;DHT22;35021;49.214;12.270;2023-07-29T03:28:03;23.30;62.40
49184;DHT22;35021;49.214;12.270;2023-07-29T03:30:30;23.30;62.40
49184;DHT22;35021;49.214;12.270;2023-07-29T03:32:57;23.30;62.40
49184;DHT22;35021;49.214;12.270;2023-07-29T03:35:24;23.30;62.30
49184;DHT22;35021;49.214;12.270;2023-07-29T03:37:51;23.30;62.40
49184;DHT22;35021;49.214;12.270;2023-07-29T03:40:18;23.30;62.30
49184;DHT22;35021;49.214;12.270;2023-07-29T03:42:45;23.30;62.30
49184;DHT22;35021;49.214;12.270;2023-07-29T03:45:11;23.30;62.30
49184;DHT22;35021;49.214;12.270;2023-07-29T03:47:38;23.30;62.30
49184;DHT22;35021;49.214;12.270;2023-07-29T03:50:06;23.20;62.30
49184;DHT22;35021;49.214;12.270;2023-07-29T03:52:33;23.20;62.40
49184;DHT22;35021;49.214;12.270;2023-07-29T03:54:59;23.20;62.50
49184;DHT22;35021;49.214;12.270;2023-07-29T03:57:26;23.20;62.60
49184;DHT22;35021;49.214;12.270;2023-07-29T03:59:53;23.20;62.60
49184;DHT22;35021;49.214;12.270;2023-07-29T04:02:21;23.20;62.70
49184;DHT22;35021;49.214;12.270;2023-07-29T04:04:47;23.10;62.60
49184;DHT22;35021;49.214;12.270;2023-07-29T04:07:15;23.10;62.60
49184;DHT22;35021;49.214;12.270;2023-07-29T04:09:42;23.10;62.70
49184;DHT22;35021;49.214;12.270;2023-07-29T04:12:10;23.10;62.70
49184;DHT22;35021;49.214;12.270;2023-07-29T04:14:37;23.10;62.70
49184;DHT22;35021;49.214;12.270;2023-07-29T04:17:04;23.10;62.70
49184;DHT22;35021;49.214;12.270;2023-07-29T04:19:31;23.10;62.70
49184;DHT22;35021;49.214;12.270;2023-07-29T04:21:58;23.10;62.70
49184;DHT22;35021;49.214;12.270;2023-07-29T04:24:24;23.10;62.60
49184;DHT22;35021;49.214;12.270;2023-07-29T04:26:51;23.10;62.60
49184;DHT22;35021;49.214;12.270;2023-07-29T04:29:18;23.10;62.70
49184;DHT22;35021;49.214;12.270;2023-07-29T04:31:45;23.10;62.80
49184;DHT22;35021;49.214;12.270;2023-07-29T04:34:12;23.00;63.00
49184;DHT22;35021;49.214;12.270;2023-07-29T04:36:39;23.00;63.10
49184;DHT22;35021;49.214;12.270;2023-07-29T04:39:06;23.00;63.20
49184;DHT22;35021;49.214;12.270;2023-07-29T04:41:32;22.90;63.10
49184;DHT22;35021;49.214;12.270;2023-07-29T04:43:59;22.90;63.20
49184;DHT22;35021;49.214;12.270;2023-07-29T04:46:26;22.90;63.30
49184;DHT22;35021;49.214;12.270;2023-07-29T04:48:53;22.90;63.30
49184;DHT22;35021;49.214;12.270;2023-07-29T04:51:20;22.90;63.30
49184;DHT22;35021;49.214;12.270;2023-07-29T04:53:47;22.90;63.30
49184;DHT22;35021;49.214;12.270;2023-07-29T04:56:14;22.90;63.30
49184;DHT22;35021;49.214;12.270;2023-07-29T04:58:44;22.90;63.40
49184;DHT22;35021;49.214;12.270;2023-07-29T05:01:11;22.90;63.50
49184;DHT22;35021;49.214;12.270;2023-07-29T05:03:38;22.90;63.60
49184;DHT22;35021;49.214;12.270;2023-07-29T05:06:06;22.90;63.60
49184;DHT22;35021;49.214;12.270;2023-07-29T05:08:33;22.90;63.60
49184;DHT22;35021;49.214;12.270;2023-07-29T05:11:00;22.90;63.70
49184;DHT22;35021;49.214;12.270;2023-07-29T05:13:27;22.90;63.70
49184;DHT22;35021;49.214;12.270;2023-07-29T05:15:53;22.90;63.70
49184;DHT22;35021;49.214;12.270;2023-07-29T05:18:21;22.90;63.70
49184;DHT22;35021;49.214;12.270;2023-07-29T05:20:48;22.90;63.70
49184;DHT22;35021;49.214;12.270;2023-07-29T05:23:14;22.90;63.70
49184;DHT22;35021;49.214;12.270;2023-07-29T05:25:41;22.90;63.60
49184;DHT22;35021;49.214;12.270;2023-07-29T05:28:08;22.90;63.60
49184;DHT22;35021;49.214;12.270;2023-07-29T05:30:35;23.00;63.60
49184;DHT22;35021;49.214;12.270;2023-07-29T05:33:04;23.00;63.60
49184;DHT22;35021;49.214;12.270;2023-07-29T05:35:31;23.00;63.60
49184;DHT22;35021;49.214;12.270;2023-07-29T05:37:58;23.00;63.60
49184;DHT22;35021;49.214;12.270;2023-07-29T05:40:25;23.00;63.60
49184;DHT22;35021;49.214;12.270;2023-07-29T05:42:51;23.00;63.50
49184;DHT22;35021;49.214;12.270;2023-07-29T05:45:18;22.90;63.40
49184;DHT22;35021;49.214;12.270;2023-07-29T05:47:45;22.90;63.50
49184;DHT22;35021;49.214;12.270;2023-07-29T05:50:12;22.90;63.50
49184;DHT22;35021;49.214;12.270;2023-07-29T05:52:39;22.90;63.60
49184;DHT22;35021;49.214;12.270;2023-07-29T05:55:06;22.90;63.60
49184;DHT22;35021;49.214;12.270;2023-07-29T05:57:33;22.90;63.70
49184;DHT22;35021;49.214;12.270;2023-07-29T06:00:00;22.90;63.70
49184;DHT22;35021;49.214;12.270;2023-07-29T06:02:27;22.80;63.60
49184;DHT22;35021;49.214;12.270;2023-07-29T06:04:54;22.80;63.70
49184;DHT22;35021;49.214;12.270;2023-07-29T06:07:21;22.80;63.80
49184;DHT22;35021;49.214;12.270;2023-07-29T06:09:47;22.80;63.80
49184;DHT22;35021;49.214;12.270;2023-07-29T06:12:14;22.80;63.70
49184;DHT22;35021;49.214;12.270;2023-07-29T06:14:41;22.80;63.80
49184;DHT22;35021;49.214;12.270;2023-07-29T06:17:08;22.80;63.90
49184;DHT22;35021;49.214;12.270;2023-07-29T06:19:38;22.80;63.80
49184;DHT22;35021;49.214;12.270;2023-07-29T06:22:05;22.80;63.90
49184;DHT22;35021;49.214;12.270;2023-07-29T06:24:32;22.80;64.00
49184;DHT22;35021;49.214;12.270;2023-07-29T06:26:59;22.80;64.10
49184;DHT22;35021;49.214;12.270;2023-07-29T06:29:26;22.80;64.10
49184;DHT22;35021;49.214;12.270;2023-07-29T06:31:53;22.80;64.10
49184;DHT22;35021;49.214;12.270;2023-07-29T06:34:21;22.80;64.10
49184;DHT22;35021;49.214;12.270;2023-07-29T06:36:50;22.80;64.00
49184;DHT22;35021;49.214;12.270;2023-07-29T06:39:16;22.80;64.00
49184;DHT22;35021;49.214;12.270;2023-07-29T06:41:43;22.80;64.00
49184;DHT22;35021;49.214;12.270;2023-07-29T06:44:10;22.80;64.10
49184;DHT22;35021;49.214;12.270;2023-07-29T06:46:37;22.80;64.30
49184;DHT22;35021;49.214;12.270;2023-07-29T06:49:05;22.70;64.20
49184;DHT22;35021;49.214;12.270;2023-07-29T06:51:32;22.70;64.20
49184;DHT22;35021;49.214;12.270;2023-07-29T06:54:02;22.70;64.30
49184;DHT22;35021;49.214;12.270;2023-07-29T06:56:29;22.70;64.30
49184;DHT22;35021;49.214;12.270;2023-07-29T06:58:56;22.70;64.30
49184;DHT22;35021;49.214;12.270;2023-07-29T07:01:23;22.80;64.30
49184;DHT22;35021;49.214;12.270;2023-07-29T07:03:50;22.70;64.20
49184;DHT22;35021;49.214;12.270;2023-07-29T07:06:17;22.80;64.30
49184;DHT22;35021;49.214;12.270;2023-07-29T07:08:43;22.70;64.30
49184;DHT22;35021;49.214;12.270;2023-07-29T07:11:10;22.70;64.30
49184;DHT22;35021;49.214;12.270;2023-07-29T07:13:37;22.70;64.30
49184;DHT22;35021;49.214;12.270;2023-07-29T07:16:04;22.70;64.30
49184;DHT22;35021;49.214;12.270;2023-07-29T07:18:31;22.70;64.30
49184;DHT22;35021;49.214;12.270;2023-07-29T07:20:58;22.70;64.30
49184;DHT22;35021;49.214;12.270;2023-07-29T07:23:25;22.70;64.30
49184;DHT22;35021;49.214;12.270;2023-07-29T07:25:52;22.70;64.20
49184;DHT22;35021;49.214;12.270;2023-07-29T07:28:18;22.70;64.20
49184;DHT22;35021;49.214;12.270;2023-07-29T07:30:45;22.70;64.10
49184;DHT22;35021;49.214;12.270;2023-07-29T07:33:12;22.80;64.00
49184;DHT22;35021;49.214;12.270;2023-07-29T07:35:39;22.80;63.80
49184;DHT22;35021;49.214;12.270;2023-07-29T07:38:09;22.80;63.70
49184;DHT22;35021;49.214;12.270;2023-07-29T07:40:36;22.80;63.60
49184;DHT22;35021;49.214;12.270;2023-07-29T07:43:03;22.90;63.50
49184;DHT22;35021;49.214;12.270;2023-07-29T07:45:32;22.90;63.70
49184;DHT22;35021;49.214;12.270;2023-07-29T07:47:59;22.90;63.70
49184;DHT22;35021;49.214;12.270;2023-07-29T07:50:29;22.90;63.70
49184;DHT22;35021;49.214;12.270;2023-07-29T07:52:56;22.90;63.70
49184;DHT22;35021;49.214;12.270;2023-07-29T07:55:23;22.90;63.70
49184;DHT22;35021;49.214;12.270;2023-07-29T07:57:50;22.90;63.60
49184;DHT22;35021;49.214;12.270;2023-07-29T08:00:16;22.90;63.40
49184;DHT22;35021;49.214;12.270;2023-07-29T08:02:45;22.90;63.30
49184;DHT22;35021;49.214;12.270;2023-07-29T08:05:12;22.90;63.30
49184;DHT22;35021;49.214;12.270;2023-07-29T08:07:39;22.90;63.20
49184;DHT22;35021;49.214;12.270;2023-07-29T08:10:06;22.90;63.20
49184;DHT22;35021;49.214;12.270;2023-07-29T08:12:34;22.90;63.20
49184;DHT22;35021;49.214;12.270;2023-07-29T08:15:01;22.90;63.20
49184;DHT22;35021;49.214;12.270;2023-07-29T08:17:28;22.90;63.20
49184;DHT22;35021;49.214;12.270;2023-07-29T08:19:55;22.90;63.30
49184;DHT22;35021;49.214;12.270;2023-07-29T08:22:21;22.90;63.40
49184;DHT22;35021;49.214;12.270;2023-07-29T08:24:48;22.90;63.40
49184;DHT22;35021;49.214;12.270;2023-07-29T08:27:17;22.90;63.30
49184;DHT22;35021;49.214;12.270;2023-07-29T08:29:44;22.90;63.30
49184;DHT22;35021;49.214;12.270;2023-07-29T08:32:11;22.90;63.30
49184;DHT22;35021;49.214;12.270;2023-07-29T08:34:38;22.90;63.20
49184;DHT22;35021;49.214;12.270;2023-07-29T08:37:05;22.90;63.20
49184;DHT22;35021;49.214;12.270;2023-07-29T08:39:32;22.90;63.20
49184;DHT22;35021;49.214;12.270;2023-07-29T08:42:04;22.90;63.20
49184;DHT22;35021;49.214;12.270;2023-07-29T08:44:41;22.90;63.30
49184;DHT22;35021;49.214;12.270;2023-07-29T08:47:08;22.90;63.30
49184;DHT22;35021;49.214;12.270;2023-07-29T08:49:36;22.90;63.20
49184;DHT22;35021;49.214;12.270;2023-07-29T08:52:04;22.80;63.00
49184;DHT22;35021;49.214;12.270;2023-07-29T08:54:31;22.80;63.00
49184;DHT22;35021;49.214;12.270;2023-07-29T08:56:59;22.80;63.00
49184;DHT22;35021;49.214;12.270;2023-07-29T08:59:26;22.80;63.20
49184;DHT22;35021;49.214;12.270;2023-07-29T09:01:55;22.80;63.50
49184;DHT22;35021;49.214;12.270;2023-07-29T09:04:23;22.80;63.60
49184;DHT22;35021;49.214;12.270;2023-07-29T09:06:53;22.80;63.80
49184;DHT22;35021;49.214;12.270;2023-07-29T09:09:21;22.70;64.00
49184;DHT22;35021;49.214;12.270;2023-07-29T09:11:48;22.70;64.10
49184;DHT22;35021;49.214;12.270;2023-07-29T09:14:15;22.70;64.30
49184;DHT22;35021;49.214;12.270;2023-07-29T09:16:43;22.70;64.50
49184;DHT22;35021;49.214;12.270;2023-07-29T09:19:10;22.70;64.70
49184;DHT22;35021;49.214;12.270;2023-07-29T09:21:40;22.70;64.90
49184;DHT22;35021;49.214;12.270;2023-07-29T09:24:08;22.60;65.00
49184;DHT22;35021;49.214;12.270;2023-07-29T09:26:36;22.60;65.10
49184;DHT22;35021;49.214;12.270;2023-07-29T09:29:03;22.60;65.20
49184;DHT22;35021;49.214;12.270;2023-07-29T09:31:30;22.70;65.40
49184;DHT22;35021;49.214;12.270;2023-07-29T09:34:03;22.70;65.60
49184;DHT22;35021;49.214;12.270;2023-07-29T09:36:31;22.70;65.60
49184;DHT22;35021;49.214;12.270;2023-07-29T09:38:58;22.70;65.60
49184;DHT22;35021;49.214;12.270;2023-07-29T09:41:29;22.70;65.60
49184;DHT22;35021;49.214;12.270;2023-07-29T09:44:04;22.70;65.60
49184;DHT22;35021;49.214;12.270;2023-07-29T09:46:36;22.80;65.60
49184;DHT22;35021;49.214;12.270;2023-07-29T09:49:05;22.80;65.60
49184;DHT22;35021;49.214;12.270;2023-07-29T09:51:40;22.80;65.60
49184;DHT22;35021;49.214;12.270;2023-07-29T09:54:07;22.80;65.60
49184;DHT22;35021;49.214;12.270;2023-07-29T09:56:39;22.80;65.40
49184;DHT22;35021;49.214;12.270;2023-07-29T09:59:07;22.90;65.40
49184;DHT22;35021;49.214;12.270;2023-07-29T10:01:34;22.90;65.40
49184;DHT22;35021;49.214;12.270;2023-07-29T10:04:04;22.90;65.30
49184;DHT22;35021;49.214;12.270;2023-07-29T10:06:34;22.90;65.30
49184;DHT22;35021;49.214;12.270;2023-07-29T10:09:02;22.90;65.20
49184;DHT22;35021;49.214;12.270;2023-07-29T10:11:31;22.90;65.20
49184;DHT22;35021;49.214;12.270;2023-07-29T10:14:00;22.90;65.30
49184;DHT22;35021;49.214;12.270;2023-07-29T10:16:36;22.90;65.20
49184;DHT22;35021;49.214;12.270;2023-07-29T10:19:04;22.90;65.10
49184;DHT22;35021;49.214;12.270;2023-07-29T10:21:33;23.00;65.20
49184;DHT22;35021;49.214;12.270;2023-07-29T10:24:03;23.00;65.20
49184;DHT22;35021;49.214;12.270;2023-07-29T10:26:33;23.00;65.00
49184;DHT22;35021;49.214;12.270;2023-07-29T10:29:04;23.00;65.00
49184;DHT22;35021;49.214;12.270;2023-07-29T10:31:35;23.00;64.90
49184;DHT22;35021;49.214;12.270;2023-07-29T10:34:04;22.90;64.90
49184;DHT22;35021;49.214;12.270;2023-07-29T10:36:31;22.90;64.90
49184;DHT22;35021;49.214;12.270;2023-07-29T10:38:58;22.90;65.10
49184;DHT22;35021;49.214;12.270;2023-07-29T10:41:54;22.80;65.30
49184;DHT22;35021;49.214;12.270;2023-07-29T10:47:20;22.80;65.80
49184;DHT22;35021;49.214;12.270;2023-07-29T10:49:51;22.80;66.00
49184;DHT22;35021;49.214;12.270;2023-07-29T10:52:30;22.80;66.40
49184;DHT22;35021;49.214;12.270;2023-07-29T10:54:57;22.80;66.30
49184;DHT22;35021;49.214;12.270;2023-07-29T10:57:35;22.80;66.50
49184;DHT22;35021;49.214;12.270;2023-07-29T11:00:04;22.70;66.60
49184;DHT22;35021;49.214;12.270;2023-07-29T11:02:35;22.70;66.70
49184;DHT22;35021;49.214;12.270;2023-07-29T11:05:17;22.70;66.90
49184;DHT22;35021;49.214;12.270;2023-07-29T11:07:48;22.70;66.90
49184;DHT22;35021;49.214;12.270;2023-07-29T11:10:15;22.70;67.00
49184;DHT22;35021;49.214;12.270;2023-07-29T11:12:49;22.70;67.10
49184;DHT22;35021;49.214;12.270;2023-07-29T11:15:27;22.70;67.20
49184;DHT22;35021;49.214;12.270;2023-07-29T11:17:59;22.70;67.30
49184;DHT22;35021;49.214;12.270;2023-07-29T11:20:31;22.70;67.50
49184;DHT22;35021;49.214;12.270;2023-07-29T11:23:02;22.70;67.40
49184;DHT22;35021;49.214;12.270;2023-07-29T11:25:31;22.70;67.50
49184;DHT22;35021;49.214;12.270;2023-07-29T11:28:00;22.70;67.50
49184;DHT22;35021;49.214;12.270;2023-07-29T11:30:32;22.70;67.60
49184;DHT22;35021;49.214;12.270;2023-07-29T11:33:00;22.70;67.50
49184;DHT22;35021;49.214;12.270;2023-07-29T11:35:28;22.80;67.40
49184;DHT22;35021;49.214;12.270;2023-07-29T11:37:55;22.80;67.40
49184;DHT22;35021;49.214;12.270;2023-07-29T11:40:25;22.80;67.20
49184;DHT22;35021;49.214;12.270;2023-07-29T11:42:52;22.80;67.00
49184;DHT22;35021;49.214;12.270;2023-07-29T11:45:23;22.80;66.90
49184;DHT22;35021;49.214;12.270;2023-07-29T11:48:01;22.80;66.70
49184;DHT22;35021;49.214;12.270;2023-07-29T11:50:28;22.80;66.60
49184;DHT22;35021;49.214;12.270;2023-07-29T11:52:55;22.80;66.60
49184;DHT22;35021;49.214;12.270;2023-07-29T11:55:22;22.80;66.60
49184;DHT22;35021;49.214;12.270;2023-07-29T11:57:51;22.80;66.50
49184;DHT22;35021;49.214;12.270;2023-07-29T12:00:18;22.80;66.30
49184;DHT22;35021;49.214;12.270;2023-07-29T12:02:49;22.80;66.20
49184;DHT22;35021;49.214;12.270;2023-07-29T12:05:18;22.80;66.00
49184;DHT22;35021;49.214;12.270;2023-07-29T12:07:45;22.80;66.00
49184;DHT22;35021;49.214;12.270;2023-07-29T12:10:12;22.80;65.80
49184;DHT22;35021;49.214;12.270;2023-07-29T12:12:46;22.80;65.60
49184;DHT22;35021;49.214;12.270;2023-07-29T12:15:22;22.80;65.40
49184;DHT22;35021;49.214;12.270;2023-07-29T12:17:52;22.80;65.20
49184;DHT22;35021;49.214;12.270;2023-07-29T12:20:20;22.80;65.10
49184;DHT22;35021;49.214;12.270;2023-07-29T12:22:52;22.80;65.70
49184;DHT22;35021;49.214;12.270;2023-07-29T12:25:19;22.80;64.90
49184;DHT22;35021;49.214;12.270;2023-07-29T12:27:47;22.80;64.80
49184;DHT22;35021;49.214;12.270;2023-07-29T12:30:14;22.80;64.80
49184;DHT22;35021;49.214;12.270;2023-07-29T12:32:45;22.80;64.60
49184;DHT22;35021;49.214;12.270;2023-07-29T12:35:13;22.70;64.40
49184;DHT22;35021;49.214;12.270;2023-07-29T12:37:40;22.70;64.40
49184;DHT22;35021;49.214;12.270;2023-07-29T12:40:29;22.70;64.30
49184;DHT22;35021;49.214;12.270;2023-07-29T12:42:57;22.70;64.50
49184;DHT22;35021;49.214;12.270;2023-07-29T12:45:24;22.70;64.30
49184;DHT22;35021;49.214;12.270;2023-07-29T12:47:53;22.70;64.30
49184;DHT22;35021;49.214;12.270;2023-07-29T12:50:20;22.70;64.30
49184;DHT22;35021;49.214;12.270;2023-07-29T12:52:47;22.70;64.20
49184;DHT22;35021;49.214;12.270;2023-07-29T12:55:15;22.70;64.20
49184;DHT22;35021;49.214;12.270;2023-07-29T12:57:44;22.70;64.20
49184;DHT22;35021;49.214;12.270;2023-07-29T13:00:11;22.70;64.10
49184;DHT22;35021;49.214;12.270;2023-07-29T13:02:39;22.70;64.00
49184;DHT22;35021;49.214;12.270;2023-07-29T13:05:11;22.70;64.00
49184;DHT22;35021;49.214;12.270;2023-07-29T13:07:42;22.70;64.00
49184;DHT22;35021;49.214;12.270;2023-07-29T13:10:10;22.70;64.10
49184;DHT22;35021;49.214;12.270;2023-07-29T13:12:37;22.70;64.00
49184;DHT22;35021;49.214;12.270;2023-07-29T13:15:04;22.70;64.00
49184;DHT22;35021;49.214;12.270;2023-07-29T13:17:31;22.70;64.00
49184;DHT22;35021;49.214;12.270;2023-07-29T13:19:58;22.70;64.00
49184;DHT22;35021;49.214;12.270;2023-07-29T13:22:25;22.70;63.80
49184;DHT22;35021;49.214;12.270;2023-07-29T13:24:52;22.70;63.60
49184;DHT22;35021;49.214;12.270;2023-07-29T13:27:19;22.70;63.40
49184;DHT22;35021;49.214;12.270;2023-07-29T13:29:45;22.70;63.40
49184;DHT22;35021;49.214;12.270;2023-07-29T13:32:13;22.60;63.30
49184;DHT22;35021;49.214;12.270;2023-07-29T13:34:40;22.60;64.10
49184;DHT22;35021;49.214;12.270;2023-07-29T13:37:07;22.60;63.50
49184;DHT22;35021;49.214;12.270;2023-07-29T13:39:34;22.60;63.60
49184;DHT22;35021;49.214;12.270;2023-07-29T13:42:00;22.50;63.80
49184;DHT22;35021;49.214;12.270;2023-07-29T13:44:28;22.50;63.90
49184;DHT22;35021;49.214;12.270;2023-07-29T13:46:55;22.50;64.00
49184;DHT22;35021;49.214;12.270;2023-07-29T13:49:22;22.50;64.30
49184;DHT22;35021;49.214;12.270;2023-07-29T13:51:48;22.40;64.30
49184;DHT22;35021;49.214;12.270;2023-07-29T13:54:15;22.50;64.40
49184;DHT22;35021;49.214;12.270;2023-07-29T13:56:42;22.40;64.50
49184;DHT22;35021;49.214;12.270;2023-07-29T13:59:09;22.50;64.70
49184;DHT22;35021;49.214;12.270;2023-07-29T14:01:36;22.50;64.60
49184;DHT22;35021;49.214;12.270;2023-07-29T14:04:03;22.50;64.40
49184;DHT22;35021;49.214;12.270;2023-07-29T14:06:30;22.40;64.50
49184;DHT22;35021;49.214;12.270;2023-07-29T14:09:11;22.50;64.80
49184;DHT22;35021;49.214;12.270;2023-07-29T14:11:39;22.50;65.00
49184;DHT22;35021;49.214;12.270;2023-07-29T14:14:07;22.50;65.00
49184;DHT22;35021;49.214;12.270;2023-07-29T14:16:34;22.50;64.80
49184;DHT22;35021;49.214;12.270;2023-07-29T14:19:02;22.50;64.70
49184;DHT22;35021;49.214;12.270;2023-07-29T14:21:29;22.60;64.60
49184;DHT22;35021;49.214;12.270;2023-07-29T14:23:55;22.60;64.50
49184;DHT22;35021;49.214;12.270;2023-07-29T14:26:22;22.60;64.50
49184;DHT22;35021;49.214;12.270;2023-07-29T14:28:49;22.60;64.40
49184;DHT22;35021;49.214;12.270;2023-07-29T14:31:16;22.60;64.20
49184;DHT22;35021;49.214;12.270;2023-07-29T14:33:44;22.60;64.00
49184;DHT22;35021;49.214;12.270;2023-07-29T14:36:11;22.60;63.90
49184;DHT22;35021;49.214;12.270;2023-07-29T14:38:37;22.60;64.00
49184;DHT22;35021;49.214;12.270;2023-07-29T14:41:04;22.60;63.90
49184;DHT22;35021;49.214;12.270;2023-07-29T14:43:31;22.60;63.90
49184;DHT22;35021;49.214;12.270;2023-07-29T14:45:58;22.60;63.90
49184;DHT22;35021;49.214;12.270;2023-07-29T14:48:25;22.60;63.90
49184;DHT22;35021;49.214;12.270;2023-07-29T14:50:52;22.60;63.90
49184;DHT22;35021;49.214;12.270;2023-07-29T14:53:19;22.60;63.90
49184;DHT22;35021;49.214;12.270;2023-07-29T14:55:46;22.60;63.90
49184;DHT22;35021;49.214;12.270;2023-07-29T14:58:12;22.60;63.90
49184;DHT22;35021;49.214;12.270;2023-07-29T15:00:39;22.60;64.00
49184;DHT22;35021;49.214;12.270;2023-07-29T15:03:06;22.60;63.90
49184;DHT22;35021;49.214;12.270;2023-07-29T15:05:34;22.60;64.10
49184;DHT22;35021;49.214;12.270;2023-07-29T15:08:01;22.60;64.20
49184;DHT22;35021;49.214;12.270;2023-07-29T15:10:28;22.60;64.20
49184;DHT22;35021;49.214;12.270;2023-07-29T15:12:55;22.60;64.00
49184;DHT22;35021;49.214;12.270;2023-07-29T15:15:22;22.60;63.80
49184;DHT22;35021;49.214;12.270;2023-07-29T15:17:48;22.60;63.80
49184;DHT22;35021;49.214;12.270;2023-07-29T15:20:15;22.60;63.80
49184;DHT22;35021;49.214;12.270;2023-07-29T15:22:42;22.60;63.80
49184;DHT22;35021;49.214;12.270;2023-07-29T15:25:09;22.60;63.70
49184;DHT22;35021;49.214;12.270;2023-07-29T15:27:37;22.60;63.70